Terminal Aerodrome Forecast
Issued by NWS Cleveland, OH

Home | Current Version | Previous Version | Text Only | Print | Product List | Glossary On
Versions: 1 2 3 4 5 6 7 8 9 10 11 12 13 14 15 16 17 18
516
FTUS41 KCLE 271135
TAFERI
TAF
KERI 271135Z 2712/2812 21012KT P6SM OVC250
     FM271800 25009KT P6SM VCSH BKN060 OVC100
     FM272100 25005KT P6SM OVC045
     FM280200 16005KT P6SM OVC025=

USA.gov is the U.S. government's official web portal to all federal, state and local government web resources and services.